createdAt,value
2023-03-29T00:01:12.970Z,6.18
2023-03-29T00:06:36.178Z,6.28
2023-03-29T00:11:39.439Z,6.93
2023-03-29T00:16:44.640Z,7.00
2023-03-29T00:21:47.386Z,6.00
2023-03-29T00:26:49.984Z,5.88
2023-03-29T00:31:54.338Z,4.53
2023-03-29T00:36:58.142Z,5.13
2023-03-29T00:42:00.808Z,5.80
2023-03-29T00:47:03.613Z,4.93
2023-03-29T00:52:07.420Z,5.90
2023-03-29T00:57:11.845Z,5.05
2023-03-29T01:02:22.281Z,4.30
2023-03-29T01:07:48.192Z,4.57
2023-03-29T01:12:56.464Z,4.78
2023-03-29T01:18:02.024Z,4.97
2023-03-29T01:23:17.579Z,4.65
2023-03-29T01:28:33.538Z,5.03
2023-03-29T01:33:45.405Z,4.53
2023-03-29T01:38:52.963Z,4.50
2023-03-29T01:44:04.753Z,4.10
2023-03-29T01:49:28.716Z,4.28
2023-03-29T01:54:39.931Z,4.07
2023-03-29T01:59:46.045Z,3.50
2023-03-29T02:04:52.525Z,3.90
2023-03-29T02:09:55.732Z,4.30
2023-03-29T02:14:59.812Z,4.03
2023-03-29T02:20:20.677Z,5.18
2023-03-29T02:25:24.626Z,3.95
2023-03-29T02:30:34.888Z,4.10
2023-03-29T02:35:46.302Z,4.38
2023-03-29T02:40:49.244Z,4.57
2023-03-29T02:45:53.149Z,4.80
2023-03-29T02:51:01.567Z,4.07
2023-03-29T02:56:04.904Z,4.63
2023-03-29T03:01:09.766Z,4.07
2023-03-29T03:06:13.635Z,3.70
2023-03-29T03:11:17.105Z,4.57
2023-03-29T03:16:19.709Z,4.55
2023-03-29T03:21:23.246Z,4.03
2023-03-29T03:26:30.013Z,3.92
2023-03-29T03:31:33.721Z,4.13
2023-03-29T03:36:48.901Z,4.30
2023-03-29T03:41:51.493Z,3.53
2023-03-29T03:46:54.839Z,4.18
2023-03-29T03:51:57.433Z,4.43
2023-03-29T03:57:00.198Z,4.95
2023-03-29T04:02:11.432Z,5.10
2023-03-29T04:07:17.941Z,4.38
2023-03-29T04:12:46.956Z,4.97
2023-03-29T04:17:49.723Z,4.32
2023-03-29T04:23:06.953Z,4.60
2023-03-29T04:28:12.865Z,4.28
2023-03-29T04:33:29.485Z,3.85
2023-03-29T04:38:38.481Z,4.88
2023-03-29T04:43:41.725Z,4.70
2023-03-29T04:48:57.515Z,4.97
2023-03-29T04:54:10.909Z,5.32
2023-03-29T04:59:33.208Z,4.50
2023-03-29T05:04:38.622Z,4.32
2023-03-29T05:09:48.202Z,4.18
2023-03-29T05:14:51.299Z,4.13
2023-03-29T05:19:55.105Z,4.35
2023-03-29T05:25:00.710Z,3.92
2023-03-29T05:30:04.044Z,3.80
2023-03-29T05:35:29.439Z,4.90
2023-03-29T05:40:34.158Z,4.60
2023-03-29T05:45:55.754Z,4.55
2023-03-29T05:50:59.435Z,4.28
2023-03-29T05:56:02.446Z,3.63
2023-03-29T06:01:12.686Z,4.38
2023-03-29T06:06:36.290Z,3.40
2023-03-29T06:11:39.359Z,3.60
2023-03-29T06:16:45.180Z,4.07
2023-03-29T06:21:49.428Z,3.90
2023-03-29T06:26:58.175Z,3.30
2023-03-29T06:32:00.859Z,3.50
2023-03-29T06:37:32.719Z,4.10
2023-03-29T06:42:46.687Z,3.60
2023-03-29T06:48:08.197Z,4.13
2023-03-29T06:53:11.643Z,3.80
2023-03-29T06:58:15.763Z,4.00
2023-03-29T07:03:23.637Z,4.00
2023-03-29T07:08:35.288Z,3.58
2023-03-29T07:13:44.040Z,4.30
2023-03-29T07:18:51.400Z,4.00
2023-03-29T07:24:13.109Z,3.65
2023-03-29T07:29:16.993Z,4.22
2023-03-29T07:34:20.003Z,3.55
2023-03-29T07:39:22.858Z,4.45
2023-03-29T07:44:45.906Z,4.13
2023-03-29T07:49:49.001Z,4.30
2023-03-29T07:54:52.310Z,4.15
2023-03-29T08:00:16.689Z,4.22
2023-03-29T08:05:40.734Z,4.35
2023-03-29T08:10:50.474Z,4.82
2023-03-29T08:16:03.550Z,4.45
2023-03-29T08:21:11.861Z,5.55
2023-03-29T08:26:16.062Z,4.78
2023-03-29T08:31:19.433Z,4.78
2023-03-29T08:36:22.550Z,4.80
2023-03-29T08:41:58.421Z,4.50
2023-03-29T08:47:28.734Z,4.47
2023-03-29T08:58:08.318Z,4.03
2023-03-29T09:03:24.417Z,3.88
2023-03-29T09:08:30.595Z,4.05
2023-03-29T09:13:39.352Z,4.75
2023-03-29T09:18:59.875Z,4.55
2023-03-29T09:24:10.251Z,4.00
2023-03-29T09:30:17.262Z,4.55
2023-03-29T09:35:38.988Z,4.70
2023-03-29T09:40:45.257Z,3.95
2023-03-29T09:46:00.827Z,4.55
2023-03-29T09:51:07.683Z,4.75
2023-03-29T09:56:15.944Z,4.95
2023-03-29T10:01:24.012Z,4.90
2023-03-29T10:06:27.069Z,4.75
2023-03-29T10:11:38.669Z,4.55
2023-03-29T10:16:46.217Z,4.47
2023-03-29T10:21:56.018Z,4.53
2023-03-29T10:27:02.379Z,4.10
2023-03-29T10:32:15.622Z,4.75
2023-03-29T10:37:19.958Z,4.55
2023-03-29T10:42:24.536Z,4.68
2023-03-29T10:47:34.454Z,4.30
2023-03-29T10:52:39.982Z,4.45
2023-03-29T10:58:13.573Z,4.90
2023-03-29T11:03:43.817Z,5.07
2023-03-29T11:09:02.286Z,4.72
2023-03-29T11:14:26.115Z,4.13
2023-03-29T11:19:47.435Z,3.83
2023-03-29T11:24:52.831Z,4.30
2023-03-29T11:29:58.742Z,4.93
2023-03-29T11:35:19.209Z,3.90
2023-03-29T11:40:36.269Z,4.15
2023-03-29T11:45:51.476Z,4.38
2023-03-29T11:51:06.800Z,5.07
2023-03-29T11:56:15.850Z,4.20
2023-03-29T12:01:33.529Z,3.88
2023-03-29T12:07:15.823Z,3.22
2023-03-29T12:12:30.425Z,3.88
2023-03-29T12:18:10.352Z,3.38
2023-03-29T12:23:15.500Z,3.05
2023-03-29T12:28:18.134Z,3.10
2023-03-29T12:33:21.682Z,3.40
2023-03-29T12:38:31.253Z,2.85
2023-03-29T12:43:52.852Z,3.45
2023-03-29T12:49:31.865Z,2.67
2023-03-29T12:54:34.465Z,3.13
2023-03-29T12:59:39.971Z,3.20
2023-03-29T13:04:57.586Z,4.00
2023-03-29T13:10:08.942Z,2.45
2023-03-29T13:15:14.466Z,2.35
2023-03-29T13:20:17.469Z,2.40
2023-03-29T13:25:50.981Z,2.05
2023-03-29T13:31:23.007Z,2.25
2023-03-29T13:36:43.985Z,2.22
2023-03-29T13:41:51.834Z,2.53
2023-03-29T13:47:05.000Z,2.58
2023-03-29T13:52:21.449Z,2.80
2023-03-29T13:57:32.334Z,2.97
2023-03-29T14:02:48.096Z,2.83
2023-03-29T14:07:54.368Z,2.88
2023-03-29T14:12:57.725Z,3.45
2023-03-29T14:18:01.531Z,3.42
2023-03-29T14:23:13.836Z,3.67
2023-03-29T14:28:26.435Z,4.22
2023-03-29T14:33:33.551Z,4.10
2023-03-29T14:38:37.410Z,3.47
2023-03-29T14:43:40.934Z,3.92
2023-03-29T14:48:44.087Z,4.00
2023-03-29T14:53:48.714Z,3.33
2023-03-29T14:58:55.568Z,3.80
2023-03-29T15:04:11.107Z,4.10
2023-03-29T15:09:27.898Z,4.35
2023-03-29T15:14:34.040Z,4.00
2023-03-29T15:19:37.006Z,3.90
2023-03-29T15:24:47.790Z,3.83
2023-03-29T15:30:01.417Z,4.25
2023-03-29T15:35:09.476Z,4.65
2023-03-29T15:40:21.507Z,4.45
2023-03-29T15:55:32.154Z,6.05
2023-03-29T16:00:36.040Z,5.65
2023-03-29T16:05:38.726Z,6.13
2023-03-29T16:10:43.924Z,5.45
2023-03-29T16:15:47.065Z,5.55
2023-03-29T16:20:49.820Z,6.03
2023-03-29T16:25:52.442Z,7.07
2023-03-29T16:30:55.084Z,6.50
2023-03-29T16:35:57.783Z,7.05
2023-03-29T16:41:00.908Z,6.72
2023-03-29T16:46:04.090Z,7.15
2023-03-29T16:51:07.436Z,7.60
2023-03-29T16:56:10.975Z,7.72
2023-03-29T17:01:19.405Z,7.95
2023-03-29T17:06:22.157Z,7.45
2023-03-29T17:11:26.285Z,8.68
2023-03-29T17:16:29.357Z,9.45
2023-03-29T17:21:32.223Z,9.50
2023-03-29T17:26:34.818Z,9.88
2023-03-29T17:31:41.106Z,12.60
2023-03-29T17:36:45.816Z,11.73
2023-03-29T17:41:48.512Z,10.85
2023-03-29T17:46:51.508Z,11.40
2023-03-29T17:51:54.114Z,11.43
2023-03-29T17:56:56.830Z,11.82
2023-03-29T18:02:02.660Z,13.02
2023-03-29T18:07:05.327Z,12.35
2023-03-29T18:12:09.203Z,12.40
2023-03-29T18:17:11.873Z,12.30
2023-03-29T18:22:14.801Z,13.95
2023-03-29T18:27:17.860Z,12.80
2023-03-29T18:32:21.612Z,13.55
2023-03-29T18:37:24.360Z,19.35
2023-03-29T18:42:27.459Z,12.63
2023-03-29T18:47:30.234Z,13.75
2023-03-29T18:52:33.375Z,12.85
2023-03-29T18:57:36.179Z,13.95
2023-03-29T19:02:40.476Z,14.05
2023-03-29T19:07:43.258Z,13.38
2023-03-29T19:12:45.975Z,13.80
2023-03-29T19:17:48.680Z,13.30
2023-03-29T19:22:52.220Z,12.02
2023-03-29T19:27:55.111Z,12.48
2023-03-29T19:32:57.947Z,13.02
2023-03-29T19:38:01.008Z,13.48
2023-03-29T19:43:04.545Z,13.27
2023-03-29T19:48:07.408Z,12.45
2023-03-29T19:53:11.181Z,10.70
2023-03-29T19:58:13.790Z,11.35
2023-03-29T20:03:17.441Z,12.05
2023-03-29T20:08:20.389Z,11.35
2023-03-29T20:13:35.363Z,12.27
2023-03-29T20:18:41.060Z,11.95
2023-03-29T20:23:44.265Z,11.88
2023-03-29T20:28:46.979Z,11.68
2023-03-29T20:33:49.850Z,12.65
2023-03-29T20:38:55.310Z,12.45
2023-03-29T20:43:58.636Z,12.65
2023-03-29T20:49:06.110Z,13.38
2023-03-29T20:54:10.043Z,14.25
2023-03-29T20:59:12.744Z,14.02
2023-03-29T21:04:15.512Z,13.77
2023-03-29T21:09:24.181Z,14.60
2023-03-29T21:14:26.910Z,15.02
2023-03-29T21:19:29.859Z,15.73
2023-03-29T21:24:33.229Z,15.70
2023-03-29T21:29:35.896Z,16.20
2023-03-29T21:34:38.581Z,16.88
2023-03-29T21:39:41.453Z,17.13
2023-03-29T21:44:44.502Z,17.40
2023-03-29T21:49:47.400Z,17.52
2023-03-29T21:54:50.067Z,16.88
2023-03-29T21:59:52.693Z,16.15
2023-03-29T22:04:55.763Z,17.05
2023-03-29T22:09:58.758Z,17.52
2023-03-29T22:15:01.942Z,16.60
2023-03-29T22:20:14.642Z,17.10
2023-03-29T22:25:18.742Z,15.82
2023-03-29T22:30:22.957Z,16.45
2023-03-29T22:35:25.783Z,18.15
2023-03-29T22:40:28.365Z,16.92
2023-03-29T22:45:30.961Z,16.98
2023-03-29T22:50:33.501Z,18.00
2023-03-29T22:55:36.831Z,17.73
2023-03-29T23:00:39.398Z,20.02
2023-03-29T23:05:42.023Z,17.42
2023-03-29T23:10:47.121Z,18.33
2023-03-29T23:15:50.663Z,18.58
2023-03-29T23:20:55.707Z,19.45
2023-03-29T23:25:58.345Z,18.60
2023-03-29T23:31:04.297Z,19.40
2023-03-29T23:36:15.561Z,17.65
2023-03-29T23:41:20.249Z,16.23
2023-03-29T23:46:22.893Z,15.63
2023-03-29T23:51:28.442Z,15.77
2023-03-29T23:56:31.368Z,14.40
